Time;durP1;ratioP1;P1;durP2;ratioP2;P2;SDS_P1;SDS_P2;PMS_P1;PMS_P2;Temp;Humidity;BMP_temperature;BMP_pressure;BME280_temperature;BME280_humidity;BME280_pressure;Samples;Min_cycle;Max_cycle;Signal;HPM_P1;HPM_P2
2021/03/21 00:02:02;;;;;;;6.40;4.73;;;2.50;92.90;;;;;;4856154;29;20884;-86
2021/03/21 00:04:28;;;;;;;6.30;5.70;;;2.40;93.50;;;;;;4862737;29;20555;-86
2021/03/21 00:06:53;;;;;;;5.63;5.00;;;2.50;93.50;;;;;;4867251;29;20886;-87
2021/03/21 00:09:19;;;;;;;5.90;5.30;;;2.50;93.40;;;;;;4858490;29;20812;-87
2021/03/21 00:11:45;;;;;;;7.67;5.20;;;2.50;93.40;;;;;;4861657;29;20683;-86
2021/03/21 00:14:11;;;;;;;9.77;5.80;;;2.50;93.70;;;;;;4860125;29;20648;-86
2021/03/21 00:16:39;;;;;;;7.00;5.60;;;2.50;94.20;;;;;;4866075;29;21401;-87
2021/03/21 00:19:06;;;;;;;8.27;6.60;;;2.40;94.50;;;;;;4860378;29;20194;-86
2021/03/21 00:21:35;;;;;;;6.10;5.40;;;2.40;94.70;;;;;;4862345;29;20465;-86
2021/03/21 00:24:02;;;;;;;8.13;6.00;;;2.40;94.30;;;;;;4864240;29;20861;-87
2021/03/21 00:26:28;;;;;;;7.20;5.60;;;2.40;94.00;;;;;;4859772;29;21063;-86
2021/03/21 00:28:54;;;;;;;6.70;5.30;;;2.40;93.90;;;;;;4866080;29;20437;-86
2021/03/21 00:31:20;;;;;;;7.37;6.40;;;2.50;93.70;;;;;;4863326;29;20292;-87
2021/03/21 00:33:48;;;;;;;8.77;6.40;;;2.50;93.50;;;;;;4865639;29;20442;-86
2021/03/21 00:36:15;;;;;;;7.40;6.40;;;2.40;93.70;;;;;;4876000;29;20492;-86
2021/03/21 00:38:47;;;;;;;11.87;6.30;;;2.40;93.80;;;;;;4859753;29;22974;-87
2021/03/21 00:41:15;;;;;;;7.70;5.80;;;2.40;94.10;;;;;;4863075;29;20461;-86
2021/03/21 00:43:41;;;;;;;7.90;6.20;;;2.40;94.20;;;;;;4862223;29;20460;-87
2021/03/21 00:46:07;;;;;;;6.80;6.10;;;2.40;94.40;;;;;;4857842;29;20441;-86
2021/03/21 00:48:41;;;;;;;8.10;6.00;;;2.50;94.60;;;;;;4853381;29;20613;-87
2021/03/21 00:51:08;;;;;;;9.30;5.73;;;2.40;94.70;;;;;;4863898;29;20533;-87
2021/03/21 00:53:33;;;;;;;7.17;5.37;;;2.40;95.10;;;;;;4860815;29;20519;-87
2021/03/21 00:56:00;;;;;;;7.00;5.70;;;2.40;95.70;;;;;;4875952;29;20568;-88
2021/03/21 00:58:25;;;;;;;8.37;5.80;;;2.30;96.20;;;;;;4863066;29;20316;-88
2021/03/21 01:00:56;;;;;;;7.10;5.93;;;2.30;96.80;;;;;;4859889;29;20540;-88
2021/03/21 01:03:23;;;;;;;7.10;5.77;;;2.30;97.00;;;;;;4864770;29;20231;-88
2021/03/21 01:05:56;;;;;;;8.10;5.80;;;2.30;97.10;;;;;;4863944;29;20476;-88
2021/03/21 01:08:29;;;;;;;5.67;5.00;;;2.20;97.20;;;;;;4866550;29;21092;-88
2021/03/21 01:11:03;;;;;;;6.67;5.17;;;2.30;97.10;;;;;;4865674;29;20548;-87
2021/03/21 01:13:29;;;;;;;7.43;5.87;;;2.30;97.30;;;;;;4863804;29;20504;-87
2021/03/21 01:15:55;;;;;;;8.13;5.37;;;2.20;97.00;;;;;;4878174;29;20485;-89
2021/03/21 01:18:23;;;;;;;15.10;6.03;;;2.20;97.30;;;;;;4865056;29;20455;-87
2021/03/21 01:20:49;;;;;;;6.00;4.97;;;2.20;97.40;;;;;;4858544;29;21054;-88
2021/03/21 01:23:15;;;;;;;6.00;5.40;;;2.20;97.40;;;;;;4865900;29;20452;-88
2021/03/21 01:25:41;;;;;;;6.17;5.20;;;2.20;97.30;;;;;;4864298;29;20189;-87
2021/03/21 01:28:29;;;;;;;6.10;5.50;;;2.30;97.20;;;;;;4865609;29;20536;-88
2021/03/21 01:30:57;;;;;;;7.73;5.60;;;2.20;96.90;;;;;;4864135;29;20804;-88
2021/03/21 01:33:25;;;;;;;12.93;5.17;;;2.20;97.20;;;;;;4881548;29;20468;-88
2021/03/21 01:35:51;;;;;;;6.50;5.00;;;2.10;97.10;;;;;;4866398;29;20572;-88
2021/03/21 01:38:18;;;;;;;8.73;4.90;;;2.20;96.60;;;;;;4860689;29;20767;-88
2021/03/21 01:40:45;;;;;;;6.17;4.27;;;2.20;96.60;;;;;;4864446;29;20800;-88
2021/03/21 01:43:16;;;;;;;4.77;4.30;;;2.30;96.10;;;;;;4866431;29;20456;-89
2021/03/21 01:45:51;;;;;;;6.33;4.93;;;2.30;95.80;;;;;;4865433;29;20614;-88
2021/03/21 01:48:35;;;;;;;5.70;4.73;;;2.30;95.50;;;;;;4862901;29;20457;-87
2021/03/21 01:51:07;;;;;;;5.53;4.83;;;2.20;95.80;;;;;;4862763;29;21069;-87
2021/03/21 01:53:37;;;;;;;9.77;6.10;;;2.30;95.80;;;;;;4879976;29;20448;-87
2021/03/21 01:56:04;;;;;;;7.47;5.50;;;2.20;95.90;;;;;;4864537;29;20889;-87
2021/03/21 01:58:33;;;;;;;7.10;5.70;;;2.20;96.30;;;;;;4879628;29;20469;-87
2021/03/21 02:01:03;;;;;;;5.93;5.33;;;2.20;96.50;;;;;;4881681;29;20524;-87
2021/03/21 02:03:29;;;;;;;6.47;5.50;;;2.20;96.60;;;;;;4881480;29;20899;-87
2021/03/21 02:06:30;;;;;;;7.77;5.67;;;2.20;96.50;;;;;;4875070;29;20544;-87
2021/03/21 02:09:08;;;;;;;6.63;5.50;;;2.20;96.50;;;;;;4859012;29;20303;-86
2021/03/21 02:11:59;;;;;;;6.37;5.37;;;2.20;96.20;;;;;;4879711;29;20453;-87
2021/03/21 02:14:34;;;;;;;7.90;6.10;;;2.10;96.40;;;;;;4853376;29;20537;-87
2021/03/21 02:17:15;;;;;;;5.53;5.03;;;2.10;96.00;;;;;;4866828;29;20522;-87
2021/03/21 02:20:04;;;;;;;8.03;5.87;;;2.20;96.10;;;;;;4878256;29;20445;-88
2021/03/21 02:22:42;;;;;;;6.40;4.63;;;2.20;96.00;;;;;;4868667;29;20449;-88
2021/03/21 02:25:13;;;;;;;6.57;5.40;;;2.20;95.70;;;;;;4866734;29;20497;-88
2021/03/21 02:27:45;;;;;;;6.77;5.67;;;2.20;96.00;;;;;;4873673;29;20497;-87
2021/03/21 02:30:35;;;;;;;6.37;5.10;;;2.20;95.90;;;;;;4868288;29;20468;-87
2021/03/21 02:33:11;;;;;;;7.17;5.97;;;2.20;95.90;;;;;;4868307;29;21453;-88
2021/03/21 02:35:48;;;;;;;6.50;5.53;;;2.20;96.40;;;;;;4868045;29;21006;-87
2021/03/21 02:38:26;;;;;;;5.93;5.33;;;2.20;96.50;;;;;;4865035;29;20724;-87
2021/03/21 02:41:04;;;;;;;9.13;5.90;;;2.20;96.50;;;;;;4867706;29;20982;-88
2021/03/21 02:43:40;;;;;;;8.90;6.13;;;2.20;96.60;;;;;;4867731;29;20497;-87
2021/03/21 02:46:17;;;;;;;7.90;6.17;;;2.20;96.50;;;;;;4878832;29;20449;-87
2021/03/21 02:48:51;;;;;;;8.17;6.10;;;2.30;96.70;;;;;;4861697;29;20599;-87
2021/03/21 02:51:25;;;;;;;10.70;5.63;;;2.30;96.80;;;;;;4861152;29;20489;-88
2021/03/21 02:53:58;;;;;;;7.10;6.40;;;2.30;97.00;;;;;;4865302;29;20466;-88
2021/03/21 02:56:29;;;;;;;7.10;5.77;;;2.30;97.00;;;;;;4868534;29;20485;-88
2021/03/21 02:59:26;;;;;;;6.90;5.70;;;2.40;97.20;;;;;;4865170;29;20961;-86
2021/03/21 03:02:08;;;;;;;7.10;5.20;;;2.40;97.20;;;;;;4860504;29;20457;-87
2021/03/21 03:04:38;;;;;;;6.93;5.00;;;2.30;97.10;;;;;;4865981;29;20468;-87
2021/03/21 03:07:33;;;;;;;6.03;5.13;;;2.30;97.00;;;;;;4859356;29;21217;-88
2021/03/21 03:10:12;;;;;;;9.23;6.37;;;2.30;97.30;;;;;;4865634;29;20492;-88
2021/03/21 03:12:48;;;;;;;6.50;5.90;;;2.30;97.30;;;;;;4865839;29;20445;-88
2021/03/21 03:15:16;;;;;;;7.27;5.50;;;2.20;97.00;;;;;;4864149;29;20441;-87
2021/03/21 03:17:57;;;;;;;7.50;5.43;;;2.30;97.30;;;;;;4863468;29;20508;-87
2021/03/21 03:20:40;;;;;;;7.00;5.70;;;2.30;96.90;;;;;;4864502;29;20437;-87
2021/03/21 03:23:32;;;;;;;7.63;5.40;;;2.30;96.20;;;;;;4883789;29;20569;-86
2021/03/21 03:26:12;;;;;;;5.43;4.73;;;2.40;96.00;;;;;;4879660;29;20496;-86
2021/03/21 03:28:55;;;;;;;5.97;5.37;;;2.40;95.90;;;;;;4878587;29;20597;-87
2021/03/21 03:31:33;;;;;;;5.90;5.10;;;2.40;95.80;;;;;;4863008;29;20449;-88
2021/03/21 03:33:59;;;;;;;8.33;5.60;;;2.40;95.60;;;;;;4861544;29;20523;-88
2021/03/21 03:36:25;;;;;;;7.93;5.10;;;2.40;95.60;;;;;;4863212;29;20489;-86
2021/03/21 03:38:52;;;;;;;5.90;5.30;;;2.30;95.70;;;;;;4859803;29;20189;-88
2021/03/21 03:41:43;;;;;;;6.80;5.33;;;2.30;95.70;;;;;;4864330;29;22110;-88
2021/03/21 03:44:27;;;;;;;6.50;5.53;;;2.30;95.70;;;;;;4880614;29;20505;-88
2021/03/21 03:47:26;;;;;;;6.87;5.70;;;2.30;96.20;;;;;;4858384;29;20895;-88
2021/03/21 03:50:11;;;;;;;6.33;5.40;;;2.20;96.70;;;;;;4860558;29;20532;-88
2021/03/21 03:53:18;;;;;;;6.17;5.43;;;2.20;97.00;;;;;;4865739;29;20446;-88
2021/03/21 03:55:50;;;;;;;7.00;5.80;;;2.20;97.30;;;;;;4861855;29;21280;-87
2021/03/21 03:58:29;;;;;;;7.20;5.80;;;2.30;97.20;;;;;;4864728;29;20464;-87
2021/03/21 04:01:02;;;;;;;8.40;5.80;;;2.20;97.30;;;;;;4856879;29;20469;-87
2021/03/21 04:03:28;;;;;;;9.00;6.03;;;2.20;97.50;;;;;;4874789;29;20548;-87
2021/03/21 04:05:57;;;;;;;7.80;6.67;;;2.20;97.30;;;;;;4863653;29;20465;-87
2021/03/21 04:08:46;;;;;;;5.87;4.90;;;2.20;97.20;;;;;;4864218;29;20197;-87
2021/03/21 04:11:22;;;;;;;6.83;5.70;;;2.20;97.50;;;;;;4878404;29;20453;-86
2021/03/21 04:13:58;;;;;;;6.73;5.40;;;2.20;97.20;;;;;;4865256;29;20457;-87
2021/03/21 04:16:32;;;;;;;7.23;6.20;;;2.20;97.10;;;;;;4865742;29;20566;-87
2021/03/21 04:19:05;;;;;;;6.27;5.10;;;2.20;97.60;;;;;;4864433;29;21314;-87
2021/03/21 04:21:37;;;;;;;5.97;5.37;;;2.20;97.40;;;;;;4872267;29;20975;-87
2021/03/21 04:24:33;;;;;;;7.07;5.70;;;2.20;97.40;;;;;;4860828;29;20457;-86
2021/03/21 04:27:17;;;;;;;6.23;5.20;;;2.30;97.50;;;;;;4863756;29;20532;-87
2021/03/21 04:29:58;;;;;;;7.70;5.83;;;2.30;97.40;;;;;;4867368;29;20532;-87
2021/03/21 04:32:33;;;;;;;6.97;6.00;;;2.30;97.30;;;;;;4862189;29;20472;-87
2021/03/21 04:35:04;;;;;;;8.50;5.77;;;2.30;97.50;;;;;;4866067;29;20508;-87
2021/03/21 04:37:31;;;;;;;6.10;5.37;;;2.20;97.50;;;;;;4863190;29;21351;-87
2021/03/21 04:39:58;;;;;;;8.83;6.53;;;2.30;97.50;;;;;;4862395;29;20532;-86
2021/03/21 04:42:40;;;;;;;6.50;5.67;;;2.20;97.40;;;;;;4860591;29;20696;-87
2021/03/21 04:45:12;;;;;;;9.20;5.43;;;2.20;97.40;;;;;;4864822;29;20445;-87
2021/03/21 04:47:43;;;;;;;6.53;5.60;;;2.20;97.50;;;;;;4863380;29;20469;-87
2021/03/21 04:50:09;;;;;;;8.83;5.23;;;2.20;97.40;;;;;;4860160;29;20458;-88
2021/03/21 04:52:44;;;;;;;11.03;6.70;;;2.20;97.60;;;;;;4860898;29;20473;-86
2021/03/21 04:55:21;;;;;;;8.53;5.20;;;2.20;97.80;;;;;;4862864;29;21023;-88
2021/03/21 04:57:49;;;;;;;5.97;5.37;;;2.20;98.00;;;;;;4876679;29;20452;-87
2021/03/21 05:00:34;;;;;;;8.03;6.13;;;2.20;97.80;;;;;;4862924;29;20821;-87
2021/03/21 05:03:22;;;;;;;6.90;5.70;;;2.20;97.90;;;;;;4863056;29;20840;-87
2021/03/21 05:06:37;;;;;;;6.27;5.20;;;2.20;98.10;;;;;;4878962;29;20461;-88
2021/03/21 05:09:07;;;;;;;8.13;5.87;;;2.30;97.80;;;;;;4853347;29;20548;-88
2021/03/21 05:11:41;;;;;;;7.87;5.57;;;2.30;97.80;;;;;;4876884;29;20452;-88
2021/03/21 05:14:36;;;;;;;11.73;5.67;;;2.30;97.90;;;;;;4861832;29;20450;-87
2021/03/21 05:17:20;;;;;;;5.53;4.60;;;2.20;97.90;;;;;;4874210;29;20576;-87
2021/03/21 05:19:50;;;;;;;6.00;5.40;;;2.20;98.00;;;;;;4862835;29;20543;-88
2021/03/21 05:22:30;;;;;;;6.43;4.80;;;2.20;98.40;;;;;;4862938;29;20456;-88
2021/03/21 05:25:08;;;;;;;7.70;6.00;;;2.20;98.20;;;;;;4862987;29;20461;-87
2021/03/21 05:27:42;;;;;;;6.10;5.20;;;2.20;98.20;;;;;;4861821;29;21670;-87
2021/03/21 05:30:16;;;;;;;6.30;5.40;;;2.20;98.50;;;;;;4877228;29;20453;-87
2021/03/21 05:32:42;;;;;;;5.43;4.93;;;2.20;98.20;;;;;;4866302;29;20516;-87
2021/03/21 05:35:15;;;;;;;6.50;5.47;;;2.10;98.40;;;;;;4877754;29;20442;-86
2021/03/21 05:37:56;;;;;;;6.07;4.90;;;2.20;98.40;;;;;;4870029;29;20472;-87
2021/03/21 05:41:12;;;;;;;6.80;5.70;;;2.20;98.50;;;;;;4864037;29;20536;-87
2021/03/21 05:44:05;;;;;;;5.83;5.17;;;2.30;98.60;;;;;;4863815;29;20445;-87
2021/03/21 05:46:40;;;;;;;6.27;5.67;;;2.30;98.60;;;;;;4868333;29;20461;-87
2021/03/21 05:49:27;;;;;;;7.30;6.00;;;2.30;99.00;;;;;;4869625;29;20437;-88
2021/03/21 05:52:18;;;;;;;9.60;6.53;;;2.30;98.50;;;;;;4864758;29;20508;-87
2021/03/21 05:55:21;;;;;;;8.00;6.30;;;2.40;99.00;;;;;;4866997;29;20865;-87
2021/03/21 05:58:20;;;;;;;7.37;6.10;;;2.30;99.10;;;;;;4863178;29;20743;-87
2021/03/21 06:01:10;;;;;;;6.03;5.43;;;2.40;98.90;;;;;;4879633;29;20453;-87
2021/03/21 06:03:58;;;;;;;7.30;5.57;;;2.30;99.10;;;;;;4880662;29;20537;-87
2021/03/21 06:06:51;;;;;;;6.20;5.27;;;2.30;99.10;;;;;;4878337;29;20653;-87
2021/03/21 06:09:29;;;;;;;9.70;5.80;;;2.30;99.30;;;;;;4880911;29;20453;-86
2021/03/21 06:12:27;;;;;;;9.80;5.73;;;2.40;99.50;;;;;;4866284;29;20452;-87
2021/03/21 06:15:20;;;;;;;7.20;5.87;;;2.30;99.20;;;;;;4833707;29;20475;-87
2021/03/21 06:18:02;;;;;;;7.80;5.50;;;2.30;99.30;;;;;;4866856;29;21132;-87
2021/03/21 06:20:37;;;;;;;8.30;6.40;;;2.40;99.40;;;;;;4863766;29;20449;-87
2021/03/21 06:23:27;;;;;;;6.20;5.37;;;2.40;99.10;;;;;;4876155;29;20455;-87
2021/03/21 06:26:12;;;;;;;8.27;6.30;;;2.30;99.10;;;;;;4878703;29;20469;-87
2021/03/21 06:28:42;;;;;;;7.33;5.50;;;2.20;99.20;;;;;;4867542;29;20452;-87
2021/03/21 06:31:26;;;;;;;5.33;4.83;;;2.30;99.30;;;;;;4877908;29;20933;-86
2021/03/21 06:34:15;;;;;;;6.10;5.20;;;2.30;99.10;;;;;;4865294;29;20482;-87
2021/03/21 06:36:52;;;;;;;6.43;5.10;;;2.30;99.50;;;;;;4866484;29;20486;-88
2021/03/21 06:39:37;;;;;;;6.07;5.33;;;2.30;99.50;;;;;;4883587;29;20449;-87
2021/03/21 06:42:55;;;;;;;5.90;5.03;;;2.30;99.40;;;;;;4862349;29;20541;-88
2021/03/21 06:45:47;;;;;;;7.00;5.13;;;2.40;99.30;;;;;;4842129;29;20520;-86
2021/03/21 06:48:15;;;;;;;7.60;5.80;;;2.50;99.10;;;;;;4881146;29;20688;-88
2021/03/21 06:51:15;;;;;;;6.63;5.93;;;2.50;99.00;;;;;;4867944;29;20453;-87
2021/03/21 06:54:18;;;;;;;9.13;5.63;;;2.50;99.10;;;;;;4882970;29;20528;-88
2021/03/21 06:57:23;;;;;;;8.00;5.53;;;2.50;99.30;;;;;;4878375;29;20596;-88
2021/03/21 07:00:17;;;;;;;7.63;5.53;;;2.50;99.20;;;;;;4875037;29;20500;-88
2021/03/21 07:03:04;;;;;;;9.73;6.17;;;2.50;99.50;;;;;;4879989;29;20991;-87
2021/03/21 07:06:20;;;;;;;5.97;5.33;;;2.50;99.30;;;;;;4864347;29;20603;-88
2021/03/21 07:09:07;;;;;;;8.00;5.47;;;2.60;99.20;;;;;;4865105;29;20453;-88
2021/03/21 07:11:51;;;;;;;6.43;5.47;;;2.60;99.00;;;;;;4862842;29;20610;-88
2021/03/21 07:14:38;;;;;;;6.27;5.10;;;2.60;99.10;;;;;;4866616;29;22308;-88
2021/03/21 07:17:15;;;;;;;7.13;5.70;;;2.50;98.60;;;;;;4878318;29;21062;-87
2021/03/21 07:20:08;;;;;;;9.23;6.40;;;2.50;99.20;;;;;;4876729;29;20453;-87
2021/03/21 07:22:40;;;;;;;11.80;7.40;;;2.60;98.80;;;;;;4862790;29;20449;-88
2021/03/21 07:25:40;;;;;;;7.93;5.53;;;2.60;98.50;;;;;;4878476;29;21149;-88
2021/03/21 07:28:27;;;;;;;6.23;5.07;;;2.60;98.20;;;;;;4865868;29;20492;-87
2021/03/21 07:31:30;;;;;;;7.60;5.27;;;2.70;98.10;;;;;;4861577;29;20445;-87
2021/03/21 07:34:09;;;;;;;7.53;5.47;;;2.70;97.80;;;;;;4877945;29;20507;-87
2021/03/21 07:36:59;;;;;;;7.27;5.20;;;2.80;98.00;;;;;;4864569;29;20520;-88
2021/03/21 07:39:36;;;;;;;10.50;5.90;;;2.80;97.80;;;;;;4878660;29;20523;-88
2021/03/21 07:42:18;;;;;;;7.13;6.23;;;2.80;97.50;;;;;;4876951;29;20822;-87
2021/03/21 07:44:56;;;;;;;5.60;5.10;;;2.80;97.70;;;;;;4862881;29;20458;-88
2021/03/21 07:47:39;;;;;;;8.27;5.77;;;2.90;97.20;;;;;;4863198;29;20449;-88
2021/03/21 07:50:13;;;;;;;7.37;5.53;;;2.90;97.60;;;;;;4870215;29;20502;-88
2021/03/21 07:53:00;;;;;;;8.63;5.70;;;2.80;97.30;;;;;;4859679;29;20454;-88
2021/03/21 07:55:29;;;;;;;6.40;4.97;;;2.80;97.70;;;;;;4862684;29;20446;-87
2021/03/21 07:58:05;;;;;;;8.07;5.60;;;2.80;97.90;;;;;;4864932;29;20501;-87
2021/03/21 08:00:31;;;;;;;6.20;5.37;;;2.80;97.80;;;;;;4861576;29;20649;-87
2021/03/21 08:03:12;;;;;;;6.93;5.00;;;2.90;98.00;;;;;;4860772;29;20462;-87
2021/03/21 08:05:39;;;;;;;6.70;4.90;;;2.90;97.90;;;;;;4864596;29;20520;-86
2021/03/21 08:08:09;;;;;;;6.10;4.77;;;3.00;97.80;;;;;;4877843;29;20531;-83
2021/03/21 08:10:38;;;;;;;6.50;5.70;;;2.90;97.70;;;;;;4860417;29;20971;-84
2021/03/21 08:13:18;;;;;;;4.97;4.30;;;3.00;97.80;;;;;;4854240;29;20865;-84
2021/03/21 08:16:18;;;;;;;7.30;4.80;;;3.00;97.80;;;;;;4875927;29;20465;-88
2021/03/21 08:18:47;;;;;;;6.07;5.10;;;3.10;98.10;;;;;;4863778;29;20468;-89
2021/03/21 08:21:24;;;;;;;6.23;5.23;;;3.20;97.90;;;;;;4860113;29;20543;-89
2021/03/21 08:23:52;;;;;;;6.20;4.97;;;3.20;97.70;;;;;;4860345;29;20547;-89
2021/03/21 08:26:25;;;;;;;7.97;5.47;;;3.10;97.60;;;;;;4855935;29;20561;-86
2021/03/21 08:29:11;;;;;;;8.27;5.53;;;3.10;97.70;;;;;;4857822;29;20537;-91
2021/03/21 08:32:10;;;;;;;6.20;5.60;;;3.10;97.70;;;;;;4854335;29;20910;-90
2021/03/21 08:34:55;;;;;;;5.20;4.70;;;3.20;99.70;;;;;;4868607;29;20469;-92
2021/03/21 08:37:51;;;;;;;7.13;4.40;;;3.20;97.40;;;;;;4870507;29;20971;-89
2021/03/21 08:40:32;;;;;;;5.17;4.20;;;3.30;97.20;;;;;;4856702;29;20461;-89
2021/03/21 08:43:16;;;;;;;6.43;4.30;;;3.30;97.10;;;;;;4856454;29;20809;-89
2021/03/21 08:46:04;;;;;;;4.97;4.47;;;3.40;97.10;;;;;;4869180;29;20885;-89
2021/03/21 08:48:36;;;;;;;6.30;5.10;;;3.30;97.10;;;;;;4870192;29;20449;-88
2021/03/21 08:51:05;;;;;;;4.93;4.27;;;3.40;97.30;;;;;;4856882;29;20472;-88
2021/03/21 08:53:38;;;;;;;7.57;5.50;;;3.50;96.90;;;;;;4854487;29;20572;-89
2021/03/21 08:56:25;;;;;;;5.70;4.20;;;3.60;97.00;;;;;;4869496;29;20563;-88
2021/03/21 08:59:26;;;;;;;4.50;4.10;;;3.70;96.40;;;;;;4860010;29;20449;-89
2021/03/21 09:02:15;;;;;;;6.43;4.67;;;3.80;96.70;;;;;;4873022;29;20480;-89
2021/03/21 09:05:00;;;;;;;5.90;4.83;;;3.90;96.40;;;;;;4851562;29;20456;-90
2021/03/21 09:07:29;;;;;;;5.50;4.80;;;4.00;95.60;;;;;;4854436;29;20449;-89
2021/03/21 09:10:12;;;;;;;5.00;4.13;;;4.10;96.00;;;;;;4854923;29;20496;-90
2021/03/21 09:12:44;;;;;;;5.47;4.43;;;4.20;95.50;;;;;;4857111;29;20837;-89
2021/03/21 09:15:31;;;;;;;5.80;5.17;;;4.10;95.30;;;;;;4855131;29;20548;-93
2021/03/21 09:18:24;;;;;;;5.37;4.63;;;4.00;95.40;;;;;;4857232;29;20487;-90
2021/03/21 09:21:32;;;;;;;6.60;4.33;;;4.00;95.60;;;;;;4861887;29;20474;-89
2021/03/21 09:24:16;;;;;;;5.60;4.47;;;3.90;95.60;;;;;;4857901;29;20830;-91
2021/03/21 09:26:44;;;;;;;4.43;3.70;;;3.90;95.40;;;;;;4871141;29;20576;-88
2021/03/21 09:29:33;;;;;;;6.00;4.20;;;3.70;95.50;;;;;;4843430;29;20456;-89
2021/03/21 09:32:27;;;;;;;4.83;3.90;;;3.70;95.90;;;;;;4858777;29;20535;-89
2021/03/21 09:35:16;;;;;;;4.50;4.10;;;3.70;95.80;;;;;;4873800;29;20829;-89
2021/03/21 09:37:43;;;;;;;5.17;4.20;;;3.70;96.00;;;;;;4862875;29;20449;-91
2021/03/21 09:40:27;;;;;;;6.73;4.10;;;3.60;96.50;;;;;;4863130;29;20449;-91
2021/03/21 09:42:53;;;;;;;7.43;4.47;;;3.70;96.50;;;;;;4860317;29;20468;-90
2021/03/21 09:45:20;;;;;;;6.23;4.53;;;3.80;96.80;;;;;;4865678;29;20455;-91
2021/03/21 09:48:02;;;;;;;10.77;4.50;;;3.70;96.70;;;;;;4864128;29;21001;-89
2021/03/21 09:51:06;;;;;;;6.10;5.00;;;3.70;96.70;;;;;;4866293;29;20454;-92
2021/03/21 09:53:38;;;;;;;5.13;4.60;;;3.80;97.00;;;;;;4864384;29;20458;-91
2021/03/21 09:56:27;;;;;;;5.77;4.57;;;3.90;96.90;;;;;;4862517;29;20473;-89
2021/03/21 09:59:18;;;;;;;6.37;3.97;;;3.90;96.50;;;;;;4866232;29;20580;-90
2021/03/21 10:01:54;;;;;;;6.10;4.70;;;3.90;96.80;;;;;;4876276;29;20973;-90
2021/03/21 10:04:58;;;;;;;4.80;4.30;;;3.90;96.80;;;;;;4875768;29;20461;-91
2021/03/21 10:07:38;;;;;;;4.53;3.90;;;4.00;96.70;;;;;;4873826;29;20471;-92
2021/03/21 10:10:12;;;;;;;6.10;5.50;;;4.20;96.20;;;;;;4855558;29;21234;-90
2021/03/21 10:12:43;;;;;;;5.33;4.80;;;4.30;95.80;;;;;;4857655;29;20445;-91
2021/03/21 10:15:20;;;;;;;5.83;4.40;;;4.40;96.00;;;;;;4857146;29;21175;-88
2021/03/21 10:17:49;;;;;;;5.33;4.60;;;4.50;95.70;;;;;;4856913;29;20814;-90
2021/03/21 10:20:17;;;;;;;5.90;4.93;;;4.70;95.30;;;;;;4860282;29;21094;-88
2021/03/21 10:22:43;;;;;;;6.90;5.50;;;4.90;95.30;;;;;;4857926;29;20464;-89
2021/03/21 10:25:28;;;;;;;5.47;4.67;;;5.00;94.30;;;;;;4858174;29;20471;-89
2021/03/21 10:27:54;;;;;;;6.90;3.87;;;5.10;93.90;;;;;;4859016;29;20217;-89
2021/03/21 10:30:26;;;;;;;4.37;4.03;;;5.10;93.40;;;;;;4854364;29;20452;-88
2021/03/21 10:33:00;;;;;;;4.80;4.40;;;5.10;92.90;;;;;;4869428;29;20193;-89
2021/03/21 10:35:29;;;;;;;5.73;4.97;;;5.10;93.20;;;;;;4856420;29;20898;-88
2021/03/21 10:37:58;;;;;;;6.23;4.47;;;5.10;93.10;;;;;;4868460;29;20461;-91
2021/03/21 10:40:24;;;;;;;7.03;5.20;;;5.00;93.30;;;;;;4853607;29;20459;-90
2021/03/21 10:42:55;;;;;;;5.53;5.03;;;5.00;93.50;;;;;;4858472;29;20468;-90
2021/03/21 10:45:54;;;;;;;5.43;4.40;;;4.90;93.70;;;;;;4860113;29;20194;-91
2021/03/21 10:48:26;;;;;;;5.33;4.23;;;5.00;93.50;;;;;;4860148;29;20820;-91
2021/03/21 10:51:04;;;;;;;4.87;4.10;;;5.10;93.90;;;;;;4866201;29;20799;-91
2021/03/21 10:53:47;;;;;;;5.43;4.40;;;5.00;94.10;;;;;;4861609;29;20460;-90
2021/03/21 10:56:17;;;;;;;8.00;6.13;;;5.00;95.00;;;;;;4880692;29;20557;-91
2021/03/21 10:58:44;;;;;;;5.97;5.30;;;5.10;95.80;;;;;;4870212;29;20459;-91
2021/03/21 11:01:22;;;;;;;6.30;5.10;;;5.40;95.70;;;;;;4862254;29;20496;-90
2021/03/21 11:03:55;;;;;;;6.40;5.60;;;5.40;95.30;;;;;;4866987;29;20464;-90
2021/03/21 11:06:22;;;;;;;8.33;5.20;;;5.50;95.90;;;;;;4883842;29;20753;-90
2021/03/21 11:08:49;;;;;;;5.90;4.60;;;5.60;96.80;;;;;;4864430;29;20444;-94
2021/03/21 11:13:53;;;;;;;6.10;4.97;;;5.80;97.10;;;;;;4982991;23;20493;-92
2021/03/21 11:16:22;;;;;;;9.53;6.60;;;5.90;97.20;;;;;;4861990;29;21631;-87
2021/03/21 11:19:08;;;;;;;7.37;5.87;;;5.90;97.80;;;;;;4862902;29;20445;-86
2021/03/21 11:21:37;;;;;;;8.50;6.70;;;5.90;97.40;;;;;;4841846;29;21143;-86
2021/03/21 11:24:15;;;;;;;8.00;5.93;;;6.20;96.40;;;;;;4856605;29;20596;-86
2021/03/21 11:26:41;;;;;;;5.83;5.17;;;6.50;96.30;;;;;;4857057;29;20679;-87
2021/03/21 11:29:09;;;;;;;6.97;6.27;;;6.50;93.70;;;;;;4844392;29;20734;-86
2021/03/21 11:31:41;;;;;;;6.80;5.67;;;6.50;93.20;;;;;;4842026;29;20197;-86
2021/03/21 11:34:34;;;;;;;7.90;6.10;;;6.40;93.90;;;;;;4844182;29;20451;-87
2021/03/21 11:37:20;;;;;;;8.93;6.57;;;6.40;94.30;;;;;;4837468;29;20580;-89
2021/03/21 11:40:00;;;;;;;8.40;6.73;;;6.40;95.40;;;;;;4859151;29;20450;-87
2021/03/21 11:42:44;;;;;;;6.70;6.00;;;6.30;96.60;;;;;;4863135;29;20454;-87
2021/03/21 11:45:16;;;;;;;13.40;7.10;;;6.30;97.60;;;;;;4845704;29;20461;-87
2021/03/21 11:47:45;;;;;;;9.40;7.40;;;5.80;97.80;;;;;;4861131;29;20462;-87
2021/03/21 11:50:28;;;;;;;10.87;8.33;;;5.70;99.20;;;;;;4843617;29;20458;-87
2021/03/21 11:52:56;;;;;;;9.10;7.77;;;5.90;99.70;;;;;;4845493;29;20541;-87
2021/03/21 11:55:38;;;;;;;9.77;7.90;;;5.80;99.50;;;;;;4844543;29;21231;-92
2021/03/21 11:58:26;;;;;;;9.23;7.70;;;5.90;99.90;;;;;;4863758;29;20464;-91
2021/03/21 12:01:17;;;;;;;10.57;8.47;;;5.80;99.70;;;;;;4841449;29;20567;-91
2021/03/21 12:03:51;;;;;;;9.73;7.93;;;5.80;99.40;;;;;;4857347;29;20478;-90
2021/03/21 12:06:38;;;;;;;8.50;7.60;;;5.80;99.50;;;;;;4836967;29;20522;-91
2021/03/21 12:09:23;;;;;;;12.60;9.13;;;5.70;99.50;;;;;;4856015;29;20472;-90
2021/03/21 12:11:49;;;;;;;10.53;8.40;;;5.70;99.60;;;;;;4840402;29;20458;-89
2021/03/21 12:14:28;;;;;;;11.00;8.10;;;5.80;99.80;;;;;;4839003;29;20481;-91
2021/03/21 12:16:56;;;;;;;11.83;9.07;;;5.80;99.50;;;;;;4856951;29;20509;-90
2021/03/21 12:19:35;;;;;;;11.23;7.90;;;5.90;99.40;;;;;;4839706;29;20481;-91
2021/03/21 12:22:26;;;;;;;11.60;8.83;;;5.80;99.30;;;;;;4854884;29;21059;-91
2021/03/21 12:24:54;;;;;;;11.17;8.77;;;5.80;99.40;;;;;;4824969;29;21541;-90
2021/03/21 12:27:37;;;;;;;11.20;7.53;;;5.80;99.40;;;;;;4841960;29;20466;-92
2021/03/21 12:30:08;;;;;;;10.33;9.13;;;5.90;99.10;;;;;;4857285;29;21039;-90
2021/03/21 12:32:42;;;;;;;12.10;9.10;;;6.00;99.40;;;;;;4854994;29;20451;-91
2021/03/21 12:35:23;;;;;;;9.50;7.90;;;6.00;99.50;;;;;;4854831;29;20560;-91
2021/03/21 12:40:43;;;;;;;10.30;7.40;;;6.10;99.90;;;;;;4860649;29;20460;-89
2021/03/21 12:43:44;;;;;;;9.80;8.00;;;5.90;99.60;;;;;;4838654;29;20563;-88
2021/03/21 12:46:48;;;;;;;11.07;7.60;;;6.10;99.90;;;;;;4840514;29;20999;-94
2021/03/21 12:49:38;;;;;;;8.00;7.20;;;6.10;99.90;;;;;;4842545;29;20449;-90
2021/03/21 12:52:11;;;;;;;6.90;5.90;;;6.20;99.90;;;;;;4841129;29;21002;-89
2021/03/21 12:54:38;;;;;;;7.97;6.50;;;6.20;99.90;;;;;;4856643;29;20796;-88
2021/03/21 12:57:10;;;;;;;7.07;6.17;;;6.20;99.90;;;;;;4856732;29;20491;-88
2021/03/21 12:59:36;;;;;;;7.10;6.40;;;6.20;99.90;;;;;;4850977;29;20446;-88
2021/03/21 13:02:02;;;;;;;8.37;6.00;;;6.50;99.90;;;;;;4841497;29;20524;-88
2021/03/21 13:04:27;;;;;;;6.80;5.67;;;6.60;99.90;;;;;;4839383;29;20211;-88
2021/03/21 13:06:53;;;;;;;7.83;5.30;;;6.60;99.90;;;;;;4857148;29;20484;-90
2021/03/21 13:09:19;;;;;;;6.00;5.40;;;6.60;99.90;;;;;;4837717;29;20198;-88
2021/03/21 13:11:45;;;;;;;7.67;5.80;;;6.50;99.90;;;;;;4839109;29;21114;-87
2021/03/21 13:14:10;;;;;;;5.70;5.10;;;6.30;99.90;;;;;;4859660;29;20221;-87
2021/03/21 13:16:36;;;;;;;6.03;5.43;;;6.20;99.90;;;;;;4838328;29;20289;-87
2021/03/21 13:19:02;;;;;;;7.17;5.20;;;6.30;99.90;;;;;;4837921;29;20378;-87
2021/03/21 13:21:27;;;;;;;7.27;5.60;;;6.50;99.90;;;;;;4841909;29;20834;-88
2021/03/21 13:23:54;;;;;;;7.67;5.40;;;6.60;99.90;;;;;;4840607;29;20609;-88
2021/03/21 13:26:21;;;;;;;6.00;5.03;;;6.60;99.90;;;;;;4852773;29;20220;-87
2021/03/21 13:28:46;;;;;;;5.93;4.50;;;7.00;99.90;;;;;;4854964;29;20464;-87
2021/03/21 13:31:12;;;;;;;4.97;4.47;;;7.10;99.90;;;;;;4840378;29;20461;-87
2021/03/21 13:33:39;;;;;;;4.33;3.90;;;7.00;99.90;;;;;;4858153;29;20587;-87
2021/03/21 13:36:07;;;;;;;4.30;3.30;;;6.80;99.90;;;;;;4845194;29;20383;-88
2021/03/21 13:38:34;;;;;;;3.30;3.00;;;6.80;99.90;;;;;;4845135;29;20452;-87
2021/03/21 13:41:01;;;;;;;3.20;2.80;;;6.90;99.90;;;;;;4841931;29;20460;-87
2021/03/21 13:43:29;;;;;;;3.23;2.93;;;6.90;99.90;;;;;;4841772;29;20463;-87
2021/03/21 13:45:55;;;;;;;4.03;3.60;;;6.80;99.90;;;;;;4844178;29;20909;-90
2021/03/21 13:48:21;;;;;;;3.50;3.20;;;6.80;99.90;;;;;;4861845;29;20465;-95
2021/03/21 13:53:28;;;;;;;4.57;3.23;;;6.70;99.90;;;;;;5205610;23;20500;-96
2021/03/21 13:55:55;;;;;;;3.60;3.27;;;6.70;99.90;;;;;;4882645;29;20475;-96
2021/03/21 13:58:21;;;;;;;3.97;3.53;;;6.60;99.90;;;;;;4886835;29;20594;-95